createdAt,value
2022-11-05T00:02:21.481Z,14.88
2022-11-05T00:05:06.813Z,14.82
2022-11-05T00:08:00.286Z,14.76
2022-11-05T00:10:30.251Z,14.67
2022-11-05T00:13:18.056Z,14.61
2022-11-05T00:16:03.860Z,14.55
2022-11-05T00:18:31.147Z,14.47
2022-11-05T00:20:57.940Z,14.43
2022-11-05T00:23:42.975Z,14.36
2022-11-05T00:26:11.752Z,14.27
2022-11-05T00:28:40.850Z,14.21
2022-11-05T00:31:10.837Z,14.13
2022-11-05T00:33:42.418Z,14.11
2022-11-05T00:36:10.597Z,14.05
2022-11-05T00:38:37.341Z,14.03
2022-11-05T00:41:04.792Z,13.98
2022-11-05T00:43:49.701Z,13.92
2022-11-05T00:46:16.369Z,13.87
2022-11-05T00:49:01.634Z,13.79
2022-11-05T00:51:28.236Z,13.71
2022-11-05T00:53:54.820Z,13.68
2022-11-05T00:56:21.416Z,13.62
2022-11-05T00:58:48.954Z,13.58
2022-11-05T01:01:15.660Z,13.54
2022-11-05T01:03:45.126Z,13.48
2022-11-05T01:06:17.057Z,13.45
2022-11-05T01:08:46.149Z,13.41
2022-11-05T01:11:33.858Z,13.37
2022-11-05T01:14:05.621Z,13.34
2022-11-05T01:16:32.673Z,13.32
2022-11-05T01:18:59.463Z,13.29
2022-11-05T01:21:26.079Z,13.24
2022-11-05T01:23:53.273Z,13.21
2022-11-05T01:26:19.932Z,13.19
2022-11-05T01:29:02.203Z,13.16
2022-11-05T01:31:29.218Z,13.12
2022-11-05T01:33:55.766Z,13.12
2022-11-05T01:36:22.359Z,13.10
2022-11-05T01:38:49.201Z,13.06
2022-11-05T01:41:15.754Z,13.04
2022-11-05T01:43:52.307Z,13.03
2022-11-05T01:46:27.905Z,13.05
2022-11-05T01:49:02.712Z,13.05
2022-11-05T01:51:30.077Z,13.07
2022-11-05T01:54:06.687Z,13.05
2022-11-05T01:56:41.102Z,13.08
2022-11-05T01:59:13.838Z,13.04
2022-11-05T02:01:40.655Z,13.00
2022-11-05T02:04:13.673Z,12.97
2022-11-05T02:06:46.661Z,12.89
2022-11-05T02:09:20.694Z,12.82
2022-11-05T02:11:48.285Z,12.78
2022-11-05T02:14:14.889Z,12.72
2022-11-05T02:17:01.978Z,12.71
2022-11-05T02:19:47.284Z,12.70
2022-11-05T02:22:19.956Z,12.68
2022-11-05T02:25:28.825Z,12.66
2022-11-05T02:28:13.558Z,12.59
2022-11-05T02:31:03.496Z,12.56
2022-11-05T02:33:59.090Z,12.54
2022-11-05T02:36:34.418Z,12.56
2022-11-05T02:39:09.967Z,12.53
2022-11-05T02:42:04.912Z,12.47
2022-11-05T02:44:47.115Z,12.46
2022-11-05T02:47:42.335Z,12.46
2022-11-05T02:50:48.137Z,12.41
2022-11-05T02:53:16.759Z,12.36
2022-11-05T02:55:51.325Z,12.37
2022-11-05T02:58:17.976Z,12.34
2022-11-05T03:00:53.986Z,12.35
2022-11-05T03:03:29.500Z,12.31
2022-11-05T03:06:09.846Z,12.28
2022-11-05T03:08:47.162Z,12.25
2022-11-05T03:11:26.103Z,12.22
2022-11-05T03:14:02.722Z,12.20
2022-11-05T03:16:49.786Z,12.21
2022-11-05T03:19:28.352Z,12.21
2022-11-05T03:22:01.140Z,12.22
2022-11-05T03:24:34.325Z,12.22
2022-11-05T03:27:06.657Z,12.20
2022-11-05T03:29:38.885Z,12.20
2022-11-05T03:32:08.503Z,12.18
2022-11-05T03:34:51.693Z,12.16
2022-11-05T03:37:23.544Z,12.14
2022-11-05T03:39:54.333Z,12.15
2022-11-05T03:42:26.463Z,12.15
2022-11-05T03:44:57.551Z,12.14
2022-11-05T03:47:29.929Z,12.15
2022-11-05T03:50:07.691Z,12.12
2022-11-05T03:52:43.641Z,12.11
2022-11-05T03:55:10.692Z,12.08
2022-11-05T03:57:41.402Z,12.05
2022-11-05T04:00:09.933Z,12.05
2022-11-05T04:02:37.653Z,12.04
2022-11-05T04:05:05.358Z,12.03
2022-11-05T04:07:50.291Z,12.01
2022-11-05T04:10:35.592Z,12.01
2022-11-05T04:13:20.799Z,11.97
2022-11-05T04:16:06.141Z,11.96
2022-11-05T04:18:32.841Z,11.94
2022-11-05T04:21:18.462Z,11.94
2022-11-05T04:24:04.951Z,11.93
2022-11-05T04:26:31.527Z,11.92
2022-11-05T04:29:16.549Z,11.91
2022-11-05T04:31:43.087Z,11.88
2022-11-05T04:34:09.695Z,11.85
2022-11-05T04:36:36.311Z,11.85
2022-11-05T04:39:02.998Z,11.85
2022-11-05T04:41:29.741Z,11.85
2022-11-05T04:43:56.332Z,11.84
2022-11-05T04:46:22.849Z,11.84
2022-11-05T04:48:49.411Z,11.82
2022-11-05T04:51:16.062Z,11.80
2022-11-05T04:53:42.645Z,11.80
2022-11-05T04:56:19.939Z,11.78
2022-11-05T04:58:46.795Z,11.75
2022-11-05T05:01:16.011Z,11.72
2022-11-05T05:03:43.033Z,11.72
2022-11-05T05:06:10.350Z,11.74
2022-11-05T05:08:36.965Z,11.75
2022-11-05T05:11:07.758Z,11.77
2022-11-05T05:13:34.773Z,11.73
2022-11-05T05:16:25.239Z,11.74
2022-11-05T05:18:52.706Z,11.78
2022-11-05T05:21:39.453Z,11.79
2022-11-05T05:24:10.643Z,11.78
2022-11-05T05:26:38.827Z,11.80
2022-11-05T05:29:06.949Z,11.80
2022-11-05T05:31:34.283Z,11.80
2022-11-05T05:34:01.045Z,11.80
2022-11-05T05:36:28.080Z,11.80
2022-11-05T05:38:54.693Z,11.80
2022-11-05T05:41:21.624Z,11.83
2022-11-05T05:43:48.266Z,11.83
2022-11-05T05:46:16.610Z,11.85
2022-11-05T05:48:43.936Z,11.85
2022-11-05T05:51:12.124Z,11.86
2022-11-05T05:53:38.933Z,11.88
2022-11-05T05:56:06.297Z,11.90
2022-11-05T05:58:35.478Z,11.90
2022-11-05T06:01:07.766Z,11.92
2022-11-05T06:03:34.930Z,11.92
2022-11-05T06:06:09.257Z,11.93
2022-11-05T06:08:36.901Z,11.92
2022-11-05T06:11:04.272Z,11.93
2022-11-05T06:13:31.816Z,11.94
2022-11-05T06:16:02.865Z,11.98
2022-11-05T06:18:31.038Z,12.00
2022-11-05T06:21:02.498Z,12.01
2022-11-05T06:23:32.754Z,12.00
2022-11-05T06:26:01.353Z,12.01
2022-11-05T06:28:29.547Z,12.03
2022-11-05T06:30:57.435Z,12.04
2022-11-05T06:33:24.252Z,12.08
2022-11-05T06:35:50.992Z,12.11
2022-11-05T06:38:17.548Z,12.12
2022-11-05T06:40:44.299Z,12.14
2022-11-05T06:43:11.091Z,12.16
2022-11-05T06:45:37.831Z,12.16
2022-11-05T06:48:04.690Z,12.17
2022-11-05T06:50:31.365Z,12.17
2022-11-05T06:53:00.077Z,12.18
2022-11-05T06:55:28.999Z,12.19
2022-11-05T06:57:56.373Z,12.19
2022-11-05T07:00:23.587Z,12.20
2022-11-05T07:02:50.362Z,12.24
2022-11-05T07:05:17.199Z,12.26
2022-11-05T07:07:45.531Z,12.29
2022-11-05T07:10:15.442Z,12.36
2022-11-05T07:12:42.112Z,12.41
2022-11-05T07:15:10.197Z,12.46
2022-11-05T07:17:36.770Z,12.50
2022-11-05T07:20:04.650Z,12.53
2022-11-05T07:22:31.254Z,12.60
2022-11-05T07:24:57.987Z,12.70
2022-11-05T07:27:24.547Z,12.72
2022-11-05T07:29:51.140Z,12.79
2022-11-05T07:32:18.536Z,12.76
2022-11-05T07:34:45.133Z,12.89
2022-11-05T07:37:11.740Z,13.02
2022-11-05T07:39:38.593Z,13.15
2022-11-05T07:42:05.182Z,13.26
2022-11-05T07:44:31.840Z,13.28
2022-11-05T07:46:58.413Z,13.30
2022-11-05T07:49:25.079Z,13.27
2022-11-05T07:51:51.678Z,13.25
2022-11-05T07:54:18.265Z,13.34
2022-11-05T07:56:47.138Z,13.31
2022-11-05T07:59:13.815Z,13.33
2022-11-05T08:01:40.482Z,13.38
2022-11-05T08:04:07.306Z,13.45
2022-11-05T08:06:34.306Z,13.56
2022-11-05T08:09:01.105Z,13.65
2022-11-05T08:11:27.706Z,13.74
2022-11-05T08:13:54.295Z,13.79
2022-11-05T08:16:20.889Z,13.65
2022-11-05T08:18:48.311Z,13.56
2022-11-05T08:21:14.984Z,13.60
2022-11-05T08:23:42.926Z,13.71
2022-11-05T08:26:10.261Z,13.58
2022-11-05T08:28:36.849Z,13.64
2022-11-05T08:31:03.592Z,13.70
2022-11-05T08:33:31.567Z,13.71
2022-11-05T08:36:02.897Z,13.71
2022-11-05T08:38:29.909Z,13.71
2022-11-05T08:40:58.155Z,13.66
2022-11-05T08:43:25.049Z,13.63
2022-11-05T08:45:51.839Z,13.62
2022-11-05T08:48:19.666Z,13.67
2022-11-05T08:50:47.972Z,13.74
2022-11-05T08:53:15.568Z,13.73
2022-11-05T08:55:44.006Z,13.74
2022-11-05T08:58:12.808Z,13.66
2022-11-05T09:00:40.318Z,13.77
2022-11-05T09:03:08.713Z,13.76
2022-11-05T09:05:39.143Z,13.77
2022-11-05T09:08:07.299Z,13.76
2022-11-05T09:10:34.470Z,13.52
2022-11-05T09:13:01.439Z,13.44
2022-11-05T09:15:28.533Z,13.37
2022-11-05T09:17:55.520Z,13.39
2022-11-05T09:20:22.714Z,13.32
2022-11-05T09:22:49.877Z,13.36
2022-11-05T09:25:17.919Z,13.28
2022-11-05T09:27:44.690Z,13.26
2022-11-05T09:30:12.940Z,13.24
2022-11-05T09:32:51.926Z,13.47
2022-11-05T09:35:18.502Z,13.65
2022-11-05T09:37:45.104Z,13.58
2022-11-05T09:40:17.575Z,13.39
2022-11-05T09:42:50.291Z,13.45
2022-11-05T09:45:20.413Z,13.45
2022-11-05T09:47:53.609Z,13.40
2022-11-05T09:50:25.737Z,13.36
2022-11-05T09:52:52.311Z,13.34
2022-11-05T09:55:29.452Z,13.28
2022-11-05T09:58:01.715Z,13.30
2022-11-05T10:00:30.088Z,13.03
2022-11-05T10:03:15.830Z,12.84
2022-11-05T10:05:43.462Z,12.68
2022-11-05T10:08:32.915Z,12.57
2022-11-05T10:11:07.315Z,12.44
2022-11-05T10:13:40.118Z,12.35
2022-11-05T10:16:21.775Z,12.46
2022-11-05T10:18:54.235Z,12.51
2022-11-05T10:21:37.741Z,12.73
2022-11-05T10:24:16.526Z,12.81
2022-11-05T10:26:46.534Z,12.85
2022-11-05T10:29:29.437Z,12.73
2022-11-05T10:32:01.439Z,12.71
2022-11-05T10:34:32.548Z,12.48
2022-11-05T10:36:59.299Z,12.45
2022-11-05T10:39:27.931Z,12.38
2022-11-05T10:42:19.216Z,12.16
2022-11-05T10:45:16.432Z,12.04
2022-11-05T10:48:14.056Z,12.01
2022-11-05T10:50:41.381Z,11.89
2022-11-05T10:53:15.613Z,11.77
2022-11-05T10:55:46.214Z,11.55
2022-11-05T10:58:15.846Z,11.37
2022-11-05T11:00:44.591Z,11.24
2022-11-05T11:03:36.167Z,11.09
2022-11-05T11:06:07.695Z,10.85
2022-11-05T11:08:36.663Z,10.72
2022-11-05T11:11:07.776Z,10.66
2022-11-05T11:14:12.591Z,10.51
2022-11-05T11:16:44.611Z,10.44
2022-11-05T11:19:29.531Z,10.35
2022-11-05T11:22:05.152Z,10.20
2022-11-05T11:24:38.961Z,10.03
2022-11-05T11:27:13.618Z,10.05
2022-11-05T11:29:48.941Z,10.01
2022-11-05T11:32:19.555Z,10.01
2022-11-05T11:34:51.731Z,10.03
2022-11-05T11:37:37.378Z,10.00
2022-11-05T11:40:29.533Z,9.89
2022-11-05T11:42:57.901Z,9.84
2022-11-05T11:45:36.587Z,9.85
2022-11-05T11:48:06.557Z,9.81
2022-11-05T11:50:38.924Z,9.76
2022-11-05T11:53:20.539Z,9.76
2022-11-05T11:56:01.542Z,9.75
2022-11-05T11:58:47.352Z,9.78
2022-11-05T12:01:17.068Z,9.74
2022-11-05T12:04:08.512Z,9.71
2022-11-05T12:06:42.867Z,9.63
2022-11-05T12:09:23.283Z,9.61
2022-11-05T12:12:05.501Z,9.49
2022-11-05T12:14:43.691Z,9.58
2022-11-05T12:17:50.539Z,9.54
2022-11-05T12:20:41.752Z,9.49
2022-11-05T12:23:30.164Z,9.44
2022-11-05T12:26:14.998Z,9.46
2022-11-05T12:29:17.777Z,9.42
2022-11-05T12:31:50.293Z,9.42
2022-11-05T12:34:41.607Z,9.43
2022-11-05T12:37:37.417Z,9.44
2022-11-05T12:40:41.378Z,9.44
2022-11-05T12:43:22.842Z,9.34
2022-11-05T12:46:01.638Z,9.35
2022-11-05T12:49:03.556Z,9.27
2022-11-05T12:52:01.434Z,9.31
2022-11-05T12:54:44.916Z,9.33
2022-11-05T12:57:13.677Z,9.24
2022-11-05T12:59:52.654Z,9.27
2022-11-05T13:02:37.725Z,9.24
2022-11-05T13:05:14.179Z,9.15
2022-11-05T13:07:52.615Z,9.16
2022-11-05T13:10:34.542Z,9.18
2022-11-05T13:13:26.498Z,9.11
2022-11-05T13:15:58.674Z,9.16
2022-11-05T13:18:47.210Z,9.18
2022-11-05T13:21:15.896Z,9.16
2022-11-05T13:24:11.946Z,9.12
2022-11-05T13:27:10.670Z,9.20
2022-11-05T13:29:53.634Z,9.19
2022-11-05T13:32:32.029Z,9.14
2022-11-05T13:35:01.193Z,9.11
2022-11-05T13:37:53.208Z,9.13
2022-11-05T13:40:26.213Z,9.05
2022-11-05T13:43:02.612Z,9.05
2022-11-05T13:45:59.101Z,9.04
2022-11-05T13:48:38.176Z,9.02
2022-11-05T13:51:04.836Z,8.99
2022-11-05T13:54:19.115Z,8.92
2022-11-05T13:57:01.098Z,8.97
2022-11-05T13:59:46.102Z,8.98
2022-11-05T14:02:47.725Z,8.93
2022-11-05T14:05:44.413Z,8.92
2022-11-05T14:08:17.587Z,8.86
2022-11-05T14:10:56.777Z,8.86
2022-11-05T14:13:25.135Z,8.90
2022-11-05T14:15:58.673Z,8.82
2022-11-05T14:18:25.337Z,8.82
2022-11-05T14:21:00.842Z,8.75
2022-11-05T14:23:38.597Z,8.76
2022-11-05T14:26:21.137Z,8.76
2022-11-05T14:28:58.174Z,8.78
2022-11-05T14:31:54.358Z,8.75
2022-11-05T14:34:39.865Z,8.73
2022-11-05T14:37:12.516Z,8.72
2022-11-05T14:39:40.409Z,8.72
2022-11-05T14:42:28.755Z,8.76
2022-11-05T14:45:07.474Z,8.76
2022-11-05T14:47:42.175Z,8.71
2022-11-05T14:50:12.152Z,8.70
2022-11-05T14:52:40.743Z,8.68
2022-11-05T14:55:27.025Z,8.69
2022-11-05T14:57:53.619Z,8.68
2022-11-05T15:00:44.616Z,8.70
2022-11-05T15:03:49.803Z,8.62
2022-11-05T15:06:32.122Z,8.62
2022-11-05T15:09:25.893Z,8.64
2022-11-05T15:12:03.919Z,8.63
2022-11-05T15:14:34.913Z,8.63
2022-11-05T15:17:15.555Z,8.67
2022-11-05T15:19:43.218Z,8.64
2022-11-05T15:22:26.676Z,8.68
2022-11-05T15:24:53.419Z,8.70
2022-11-05T15:27:56.279Z,8.70
2022-11-05T15:30:24.338Z,8.71
2022-11-05T15:32:51.844Z,8.68
2022-11-05T15:35:23.695Z,8.66
2022-11-05T15:37:54.804Z,8.70
2022-11-05T15:40:26.393Z,8.67
2022-11-05T15:43:22.316Z,8.63
2022-11-05T15:46:22.034Z,8.68
2022-11-05T15:48:52.815Z,8.71
2022-11-05T15:51:24.491Z,8.61
2022-11-05T15:56:49.214Z,8.65
2022-11-05T15:59:21.000Z,8.67
2022-11-05T16:01:52.650Z,8.68
2022-11-05T16:04:24.941Z,8.68
2022-11-05T16:06:55.219Z,8.67
2022-11-05T16:09:32.049Z,8.65
2022-11-05T16:12:22.122Z,8.66
2022-11-05T16:15:10.436Z,8.65
2022-11-05T16:17:39.910Z,8.62
2022-11-05T16:20:23.844Z,8.60
2022-11-05T16:22:54.015Z,8.61
2022-11-05T16:25:32.082Z,8.64
2022-11-05T16:27:59.933Z,8.64
2022-11-05T16:30:27.083Z,8.67
2022-11-05T16:32:54.521Z,8.71
2022-11-05T16:35:24.070Z,8.71
2022-11-05T16:37:55.159Z,8.69
2022-11-05T16:40:24.811Z,8.69
2022-11-05T16:42:53.881Z,8.64
2022-11-05T16:45:23.623Z,8.66
2022-11-05T16:47:51.019Z,8.69
2022-11-05T16:50:24.635Z,8.65
2022-11-05T16:52:51.718Z,8.65
2022-11-05T16:55:19.528Z,8.67
2022-11-05T16:57:51.040Z,8.67
2022-11-05T17:00:20.312Z,8.69
2022-11-05T17:02:47.447Z,8.72
2022-11-05T17:05:24.248Z,8.72
2022-11-05T17:07:53.885Z,8.69
2022-11-05T17:10:22.559Z,8.71
2022-11-05T17:12:50.058Z,8.71
2022-11-05T17:15:36.970Z,8.69
2022-11-05T17:18:05.619Z,8.63
2022-11-05T17:20:41.019Z,8.66
2022-11-05T17:23:13.632Z,8.67
2022-11-05T17:25:42.425Z,8.69
2022-11-05T17:28:10.663Z,8.68
2022-11-05T17:30:41.151Z,8.69
2022-11-05T17:33:09.634Z,8.72
2022-11-05T17:35:39.676Z,8.68
2022-11-05T17:38:08.753Z,8.72
2022-11-05T17:40:36.566Z,8.71
2022-11-05T17:43:04.225Z,8.72
2022-11-05T17:45:31.032Z,8.77
2022-11-05T17:47:57.877Z,8.75
2022-11-05T17:50:24.817Z,8.71
2022-11-05T17:52:52.715Z,8.73
2022-11-05T17:55:19.520Z,8.75
2022-11-05T17:57:53.026Z,8.72
2022-11-05T18:00:22.528Z,8.73
2022-11-05T18:02:53.175Z,8.74
2022-11-05T18:05:21.901Z,8.74
2022-11-05T18:07:49.444Z,8.75
2022-11-05T18:10:16.810Z,8.71
2022-11-05T18:12:44.082Z,8.72
2022-11-05T18:15:11.790Z,8.72
2022-11-05T18:17:42.320Z,8.75
2022-11-05T18:20:17.360Z,8.79
2022-11-05T18:22:45.785Z,8.75
2022-11-05T18:25:14.174Z,8.76
2022-11-05T18:27:41.388Z,8.74
2022-11-05T18:30:09.784Z,8.73
2022-11-05T18:32:36.864Z,8.71
2022-11-05T18:35:03.926Z,8.71
2022-11-05T18:37:30.554Z,8.72
2022-11-05T18:39:57.143Z,8.67
2022-11-05T18:42:25.371Z,8.69
2022-11-05T18:44:52.010Z,8.68
2022-11-05T18:47:18.742Z,8.71
2022-11-05T18:49:45.397Z,8.73
2022-11-05T18:52:12.186Z,8.74
2022-11-05T18:54:39.051Z,8.76
2022-11-05T18:57:05.735Z,8.75
2022-11-05T18:59:38.187Z,8.74
2022-11-05T19:02:07.644Z,8.71
2022-11-05T19:04:38.498Z,8.74
2022-11-05T19:07:06.237Z,8.80
2022-11-05T19:09:34.600Z,8.78
2022-11-05T19:12:01.847Z,8.76
2022-11-05T19:14:30.072Z,8.81
2022-11-05T19:16:58.137Z,8.85
2022-11-05T19:19:24.985Z,8.89
2022-11-05T19:21:52.337Z,8.87
2022-11-05T19:24:19.440Z,8.89
2022-11-05T19:26:46.848Z,8.93
2022-11-05T19:29:13.914Z,8.96
2022-11-05T19:31:40.791Z,8.95
2022-11-05T19:34:08.199Z,8.93
2022-11-05T19:36:35.182Z,8.94
2022-11-05T19:39:09.071Z,9.00
2022-11-05T19:41:36.076Z,9.05
2022-11-05T19:44:03.464Z,9.06
2022-11-05T19:46:31.612Z,9.01
2022-11-05T19:48:59.987Z,9.04
2022-11-05T19:51:29.222Z,9.09
2022-11-05T19:53:56.314Z,9.06
2022-11-05T19:56:28.686Z,9.10
2022-11-05T19:58:56.145Z,9.10
2022-11-05T20:01:24.430Z,9.16
2022-11-05T20:03:51.752Z,9.18
2022-11-05T20:06:21.512Z,9.18
2022-11-05T20:09:15.333Z,9.17
2022-11-05T20:11:37.823Z,9.15
2022-11-05T20:14:05.523Z,9.11
2022-11-05T20:16:40.524Z,9.08
2022-11-05T20:19:11.098Z,9.14
2022-11-05T20:21:37.842Z,9.16
2022-11-05T20:24:04.731Z,9.15
2022-11-05T20:26:31.802Z,9.18
2022-11-05T20:28:58.544Z,9.21
2022-11-05T20:31:25.481Z,9.15
2022-11-05T20:33:52.424Z,9.18
2022-11-05T20:36:23.115Z,9.24
2022-11-05T20:38:56.499Z,9.26
2022-11-05T20:41:23.692Z,9.20
2022-11-05T20:43:50.966Z,9.24
2022-11-05T20:46:20.151Z,9.21
2022-11-05T20:48:47.362Z,9.22
2022-11-05T20:51:20.096Z,9.18
2022-11-05T20:53:47.890Z,9.18
2022-11-05T20:56:29.741Z,9.20
2022-11-05T20:58:58.569Z,9.18
2022-11-05T21:01:26.824Z,9.18
2022-11-05T21:03:53.614Z,9.17
2022-11-05T21:06:20.251Z,9.17
2022-11-05T21:08:48.464Z,9.20
2022-11-05T21:11:15.193Z,9.22
2022-11-05T21:13:41.939Z,9.21
2022-11-05T21:16:14.034Z,9.24
2022-11-05T21:18:43.982Z,9.20
2022-11-05T21:21:19.892Z,9.19
2022-11-05T21:23:47.149Z,9.18
2022-11-05T21:26:18.101Z,9.17
2022-11-05T21:28:44.970Z,9.16
2022-11-05T21:31:12.163Z,9.13
2022-11-05T21:33:39.274Z,9.17
2022-11-05T21:36:08.611Z,9.16
2022-11-05T21:38:35.515Z,9.13
2022-11-05T21:41:03.396Z,9.12
2022-11-05T21:43:30.477Z,9.12
2022-11-05T21:46:01.207Z,9.16
2022-11-05T21:48:27.866Z,9.17
2022-11-05T21:51:13.077Z,9.20
2022-11-05T21:53:58.662Z,9.18
2022-11-05T21:56:49.013Z,9.17
2022-11-05T21:59:37.077Z,9.10
2022-11-05T22:02:04.909Z,9.08
2022-11-05T22:04:34.125Z,9.09
2022-11-05T22:07:01.371Z,9.11
2022-11-05T22:09:28.948Z,9.08
2022-11-05T22:11:56.126Z,9.08
2022-11-05T22:14:23.647Z,9.09
2022-11-05T22:16:50.512Z,9.07
2022-11-05T22:19:17.959Z,9.05
2022-11-05T22:21:44.785Z,9.04
2022-11-05T22:24:11.710Z,9.06
2022-11-05T22:26:38.944Z,9.07
2022-11-05T22:29:06.292Z,9.06
2022-11-05T22:31:36.173Z,9.06
2022-11-05T22:34:04.629Z,9.04
2022-11-05T22:36:32.214Z,9.06
2022-11-05T22:38:59.158Z,9.04
2022-11-05T22:41:25.829Z,9.04
2022-11-05T22:43:52.620Z,9.08
2022-11-05T22:46:22.727Z,9.09
2022-11-05T22:48:50.190Z,9.10
2022-11-05T22:51:26.005Z,9.13
2022-11-05T22:53:54.885Z,9.10
2022-11-05T22:56:24.354Z,9.12
2022-11-05T22:58:51.758Z,9.11
2022-11-05T23:01:19.788Z,9.14
2022-11-05T23:03:50.934Z,9.09
2022-11-05T23:06:47.768Z,9.03
2022-11-05T23:09:36.374Z,9.02
2022-11-05T23:12:09.713Z,8.98
2022-11-05T23:14:36.813Z,8.95
2022-11-05T23:17:22.876Z,8.96
2022-11-05T23:20:08.272Z,8.93
2022-11-05T23:22:53.440Z,8.91
2022-11-05T23:25:23.963Z,8.94
2022-11-05T23:27:57.370Z,8.93
2022-11-05T23:30:26.144Z,8.89
2022-11-05T23:32:53.970Z,8.88
2022-11-05T23:35:39.187Z,8.89
2022-11-05T23:38:24.439Z,8.85
2022-11-05T23:41:09.834Z,8.86
2022-11-05T23:43:55.226Z,8.86
2022-11-05T23:46:40.462Z,8.87
2022-11-05T23:49:07.229Z,8.89
2022-11-05T23:51:33.874Z,8.90
2022-11-05T23:54:00.496Z,8.92
2022-11-05T23:56:27.119Z,8.85
2022-11-05T23:58:53.719Z,8.89
